Time;durP1;ratioP1;P1;durP2;ratioP2;P2;SDS_P1;SDS_P2;PMS_P1;PMS_P2;Temp;Humidity;BMP_temperature;BMP_pressure;BME280_temperature;BME280_humidity;BME280_pressure;Samples;Min_cycle;Max_cycle;Signal;HPM_P1;HPM_P2
2022/01/25 00:24:49;;;;;;;29.52;14.05;;;1.10;99.90;;;;;;4982264;28;20531;-80
2022/01/25 00:32:20;;;;;;;24.77;12.10;;;0.90;99.90;;;;;;4975759;28;20554;-80
2022/01/25 00:34:46;;;;;;;23.55;12.75;;;1.00;99.90;;;;;;4981419;28;20108;-80
2022/01/25 00:37:12;;;;;;;21.92;12.15;;;1.00;99.90;;;;;;4983024;28;20520;-80
2022/01/25 00:39:38;;;;;;;21.77;12.27;;;1.00;99.90;;;;;;4975187;28;20065;-81
2022/01/25 00:42:10;;;;;;;22.45;12.25;;;1.00;99.90;;;;;;4978335;28;20015;-80
2022/01/25 00:44:39;;;;;;;23.55;12.60;;;1.20;99.90;;;;;;4961794;28;20085;-80
2022/01/25 00:47:08;;;;;;;23.98;12.65;;;1.20;99.90;;;;;;4961077;28;20053;-80
2022/01/25 00:49:38;;;;;;;30.35;13.93;;;1.00;99.90;;;;;;4947930;28;20229;-80
2022/01/25 00:52:20;;;;;;;28.30;14.15;;;0.80;99.90;;;;;;4959818;28;20026;-80
2022/01/25 00:54:47;;;;;;;26.08;14.40;;;0.80;99.90;;;;;;4951266;28;20031;-80
2022/01/25 00:57:13;;;;;;;30.27;15.25;;;0.80;99.90;;;;;;5025087;28;20096;-80
2022/01/25 00:59:38;;;;;;;34.33;16.35;;;0.90;99.90;;;;;;5018423;28;20510;-80
2022/01/25 01:02:08;;;;;;;31.98;16.67;;;0.70;99.90;;;;;;5020393;28;20029;-80
2022/01/25 01:04:34;;;;;;;35.78;17.08;;;0.70;99.90;;;;;;5014762;28;20104;-80
2022/01/25 01:07:03;;;;;;;37.08;15.63;;;0.80;99.90;;;;;;5028322;28;20116;-80
2022/01/25 01:09:35;;;;;;;36.75;16.02;;;0.70;99.90;;;;;;5027847;28;20552;-80
2022/01/25 01:12:06;;;;;;;33.47;15.50;;;0.80;99.90;;;;;;5027353;28;20518;-80
2022/01/25 01:14:58;;;;;;;31.17;16.40;;;0.90;99.90;;;;;;5029174;28;20045;-80
2022/01/25 01:44:23;;;;;;;34.58;16.15;;;0.40;99.90;;;;;;5013289;28;20042;-80
2022/01/25 01:47:25;;;;;;;37.63;16.70;;;0.30;99.90;;;;;;5008348;28;20057;-81
2022/01/25 01:49:43;;;;;;;35.20;17.05;;;0.10;99.90;;;;;;5023312;28;20051;-81
2022/01/25 01:52:10;;;;;;;30.55;16.42;;;0.20;99.90;;;;;;5012870;28;20032;-81
2022/01/25 01:54:37;;;;;;;35.58;16.58;;;0.20;99.90;;;;;;5014357;28;20029;-81
2022/01/25 01:57:05;;;;;;;34.05;16.77;;;0.30;99.90;;;;;;5013054;28;20056;-81
2022/01/25 01:59:31;;;;;;;32.53;15.30;;;0.20;99.90;;;;;;5012935;28;20076;-81
2022/01/25 02:01:57;;;;;;;34.40;16.95;;;0.30;99.90;;;;;;5012553;28;20037;-81
2022/01/25 02:04:23;;;;;;;31.38;15.75;;;0.20;99.90;;;;;;5020659;28;20751;-80
2022/01/25 02:06:48;;;;;;;30.30;15.15;;;0.30;99.90;;;;;;5012677;28;20034;-80
2022/01/25 02:09:14;;;;;;;30.38;15.18;;;0.30;99.90;;;;;;5022865;28;20076;-80
2022/01/25 02:11:40;;;;;;;30.65;15.43;;;0.20;99.90;;;;;;5029032;28;20041;-80
2022/01/25 02:14:09;;;;;;;31.65;15.40;;;0.20;99.90;;;;;;5030418;28;20514;-80
2022/01/25 02:24:37;;;;;;;31.10;15.13;;;0.20;99.90;;;;;;5031352;28;20027;-80
2022/01/25 02:27:03;;;;;;;25.95;14.38;;;0.00;99.90;;;;;;5029451;28;20029;-80
2022/01/25 02:29:29;;;;;;;29.08;16.58;;;0.00;99.90;;;;;;5033635;28;20026;-80
2022/01/25 02:31:56;;;;;;;27.90;15.23;;;0.10;99.90;;;;;;5030684;28;20030;-80
2022/01/25 02:34:23;;;;;;;26.75;14.93;;;0.20;99.90;;;;;;5029940;28;20018;-80
2022/01/25 02:36:59;;;;;;;31.02;15.75;;;0.10;99.90;;;;;;5032525;28;20021;-80
2022/01/25 02:39:26;;;;;;;27.60;15.48;;;0.20;99.90;;;;;;5029967;28;20021;-80
2022/01/25 02:41:53;;;;;;;29.38;16.02;;;0.20;99.90;;;;;;5029065;28;20116;-80
2022/01/25 02:44:25;;;;;;;32.80;17.02;;;0.20;99.90;;;;;;5028409;28;20162;-79
2022/01/25 02:49:33;;;;;;;25.67;15.32;;;0.10;99.90;;;;;;5029821;28;20029;-80
2022/01/25 02:52:00;;;;;;;32.58;16.90;;;0.00;99.90;;;;;;5030436;28;20029;-79
2022/01/25 02:54:26;;;;;;;26.98;14.95;;;-0.10;99.90;;;;;;5029938;28;20037;-80
2022/01/25 02:56:52;;;;;;;28.65;14.65;;;-0.10;99.90;;;;;;5030174;28;20021;-80
2022/01/25 02:59:18;;;;;;;25.58;14.18;;;-0.20;99.90;;;;;;5029846;28;20120;-79
2022/01/25 03:01:46;;;;;;;28.88;14.85;;;-0.20;99.90;;;;;;5030147;28;20029;-79
2022/01/25 03:04:12;;;;;;;28.30;15.50;;;-0.30;99.90;;;;;;5033547;28;20036;-79
2022/01/25 03:06:40;;;;;;;27.80;14.93;;;-0.30;99.90;;;;;;5031804;28;20037;-79
2022/01/25 03:09:06;;;;;;;28.70;15.02;;;-0.20;99.90;;;;;;5031283;28;20107;-79
2022/01/25 03:11:32;;;;;;;28.98;15.10;;;-0.20;99.90;;;;;;5029500;28;20517;-79
2022/01/25 03:14:02;;;;;;;29.38;15.25;;;-0.10;99.90;;;;;;5030250;28;20025;-79
2022/01/25 03:16:44;;;;;;;35.28;16.75;;;-0.10;99.90;;;;;;5029165;28;20044;-79
2022/01/25 03:22:16;;;;;;;39.65;17.73;;;-0.10;99.90;;;;;;5033796;28;20079;-79
2022/01/25 03:24:42;;;;;;;43.05;19.25;;;0.00;99.90;;;;;;5030048;28;20030;-79
2022/01/25 03:27:07;;;;;;;44.90;21.23;;;0.00;99.90;;;;;;5032971;28;20041;-79
2022/01/25 03:29:33;;;;;;;41.47;19.17;;;-0.10;99.90;;;;;;5029063;28;20026;-79
2022/01/25 03:31:59;;;;;;;47.05;19.05;;;-0.10;99.90;;;;;;5029471;28;20041;-79
2022/01/25 03:34:24;;;;;;;40.65;17.50;;;0.00;99.90;;;;;;5029624;28;20556;-79
2022/01/25 03:36:50;;;;;;;36.10;17.73;;;-0.20;99.90;;;;;;5030630;28;20048;-78
2022/01/25 03:39:16;;;;;;;38.47;17.05;;;-0.20;99.90;;;;;;5028893;28;20025;-79
2022/01/25 03:41:42;;;;;;;33.67;16.58;;;-0.30;99.90;;;;;;5027748;28;20055;-79
2022/01/25 03:44:08;;;;;;;34.95;16.35;;;-0.30;99.90;;;;;;5034864;28;20078;-78
2022/01/25 03:51:48;;;;;;;32.40;15.20;;;-0.30;99.90;;;;;;5028680;28;20418;-79
2022/01/25 03:54:14;;;;;;;30.25;15.10;;;-0.40;99.90;;;;;;5028055;28;20029;-79
2022/01/25 03:56:40;;;;;;;26.00;13.77;;;-0.30;99.90;;;;;;5029245;28;20021;-79
2022/01/25 03:59:07;;;;;;;28.27;15.02;;;-0.30;99.90;;;;;;5029114;28;20022;-79
2022/01/25 04:01:35;;;;;;;26.52;13.98;;;-0.30;99.90;;;;;;5027779;28;20112;-78
2022/01/25 04:04:07;;;;;;;27.88;12.73;;;-0.30;99.90;;;;;;5033787;28;20032;-79
2022/01/25 04:06:35;;;;;;;26.98;13.80;;;-0.40;99.90;;;;;;5027852;28;20029;-79
2022/01/25 04:09:07;;;;;;;24.65;12.88;;;-0.30;99.90;;;;;;5028566;28;20468;-79
2022/01/25 04:11:34;;;;;;;30.80;15.05;;;-0.30;99.90;;;;;;5027297;28;20136;-78
2022/01/25 04:14:00;;;;;;;28.42;13.98;;;-0.40;99.90;;;;;;5028436;28;20502;-78
2022/01/25 04:16:34;;;;;;;22.83;12.57;;;-0.30;99.90;;;;;;5028836;28;20044;-78
2022/01/25 04:19:14;;;;;;;23.65;12.43;;;-0.30;99.90;;;;;;5028550;28;20021;-78
2022/01/25 04:24:40;;;;;;;23.83;13.93;;;-0.40;99.90;;;;;;5031320;28;20029;-78
2022/01/25 04:27:06;;;;;;;24.50;13.33;;;-0.40;99.90;;;;;;5025836;28;20018;-78
2022/01/25 04:29:32;;;;;;;22.90;12.80;;;-0.60;99.90;;;;;;5027595;28;20274;-78
2022/01/25 04:31:58;;;;;;;23.77;13.18;;;-0.60;99.90;;;;;;5028014;28;20037;-78
2022/01/25 04:34:38;;;;;;;24.77;13.55;;;-0.70;99.90;;;;;;5026848;28;20075;-77
2022/01/25 04:56:06;;;;;;;22.10;12.13;;;-0.70;99.90;;;;;;5028198;28;20454;-77
2022/01/25 04:58:43;;;;;;;23.70;12.18;;;-0.60;99.90;;;;;;5026703;28;20025;-77
2022/01/25 05:01:09;;;;;;;20.85;11.52;;;-0.60;99.90;;;;;;5034174;28;20083;-77
2022/01/25 05:03:56;;;;;;;19.90;11.90;;;-0.60;99.90;;;;;;5028255;28;20029;-77
2022/01/25 05:06:23;;;;;;;22.77;11.68;;;-0.60;99.90;;;;;;5025936;28;20033;-77
2022/01/25 05:08:53;;;;;;;22.67;12.05;;;-0.60;99.90;;;;;;5027762;28;20505;-77
2022/01/25 05:11:32;;;;;;;24.02;12.02;;;-0.60;99.90;;;;;;5028368;28;20075;-77
2022/01/25 05:24:20;;;;;;;21.05;11.13;;;-0.60;99.90;;;;;;5029569;28;20075;-76
2022/01/25 05:26:45;;;;;;;20.73;12.30;;;-0.70;99.90;;;;;;5027782;28;20071;-76
2022/01/25 05:29:11;;;;;;;19.20;11.68;;;-0.60;99.90;;;;;;5026484;28;20417;-76
2022/01/25 05:31:38;;;;;;;20.25;11.50;;;-0.70;99.90;;;;;;5028101;28;20562;-76
2022/01/25 05:34:07;;;;;;;21.98;12.18;;;-0.70;99.90;;;;;;5028124;28;20037;-76
2022/01/25 05:36:33;;;;;;;25.67;13.35;;;-0.70;99.90;;;;;;5027219;28;20021;-76
2022/01/25 05:39:02;;;;;;;21.80;11.10;;;-0.90;99.90;;;;;;5027689;28;20025;-76
2022/01/25 05:41:31;;;;;;;20.38;12.15;;;-0.80;99.90;;;;;;5032900;28;20109;-76
2022/01/25 05:46:44;;;;;;;21.15;12.00;;;-0.80;99.90;;;;;;5027004;28;20050;-76
2022/01/25 05:49:10;;;;;;;24.40;13.27;;;-0.80;99.90;;;;;;5026759;28;20124;-75
2022/01/25 05:51:35;;;;;;;22.95;12.80;;;-0.80;99.90;;;;;;5028628;28;20117;-75
2022/01/25 05:54:01;;;;;;;18.77;11.70;;;-0.70;99.90;;;;;;5027324;28;20021;-75
2022/01/25 05:56:27;;;;;;;20.00;12.10;;;-0.70;99.90;;;;;;5027102;28;20378;-75
2022/01/25 05:58:52;;;;;;;19.60;12.05;;;-0.80;99.90;;;;;;5032807;28;20498;-75
2022/01/25 06:01:19;;;;;;;16.55;10.48;;;-0.70;99.90;;;;;;5032722;28;20028;-75
2022/01/25 06:03:45;;;;;;;19.38;11.63;;;-0.70;99.90;;;;;;5031979;28;20091;-75
2022/01/25 06:06:12;;;;;;;21.25;12.38;;;-0.70;99.90;;;;;;5030729;28;20076;-75
2022/01/25 06:08:37;;;;;;;19.08;11.23;;;-0.80;99.90;;;;;;5030944;28;20071;-75
2022/01/25 06:11:03;;;;;;;21.67;11.95;;;-0.70;99.90;;;;;;5029000;28;20112;-75
2022/01/25 06:13:29;;;;;;;20.10;11.48;;;-0.80;99.90;;;;;;5030993;28;20061;-75
2022/01/25 06:15:55;;;;;;;24.40;12.20;;;-0.80;99.90;;;;;;5032639;28;20048;-75
2022/01/25 06:18:20;;;;;;;19.70;12.52;;;-0.80;99.90;;;;;;5030826;28;20029;-75
2022/01/25 06:20:46;;;;;;;19.92;11.40;;;-0.80;99.90;;;;;;5034010;28;20498;-75
2022/01/25 06:23:12;;;;;;;20.88;11.70;;;-0.90;99.90;;;;;;5033499;28;20036;-75
2022/01/25 06:25:38;;;;;;;22.98;12.77;;;-0.90;99.90;;;;;;5031872;28;20035;-75
2022/01/25 06:28:04;;;;;;;21.38;11.50;;;-1.10;99.90;;;;;;5032574;28;20122;-75
2022/01/25 06:30:30;;;;;;;21.70;11.55;;;-1.00;99.90;;;;;;5030044;28;20537;-75
2022/01/25 06:32:56;;;;;;;24.40;12.30;;;-1.20;99.90;;;;;;5030799;28;20029;-75
2022/01/25 06:35:22;;;;;;;19.48;11.73;;;-1.10;99.90;;;;;;5029629;28;20022;-75
2022/01/25 06:37:48;;;;;;;20.73;11.27;;;-1.10;99.90;;;;;;5037041;28;20485;-75
2022/01/25 06:40:14;;;;;;;27.35;12.38;;;-1.00;99.90;;;;;;5033636;28;20025;-75
2022/01/25 06:42:40;;;;;;;20.70;11.32;;;-1.00;99.90;;;;;;5031989;28;20067;-75
2022/01/25 06:45:17;;;;;;;20.58;10.48;;;-1.10;99.90;;;;;;5032782;28;20049;-75
2022/01/25 06:47:43;;;;;;;19.58;12.02;;;-1.10;99.90;;;;;;5030243;28;20030;-75
2022/01/25 06:50:10;;;;;;;23.15;10.98;;;-1.00;99.90;;;;;;5029980;28;20510;-75
2022/01/25 06:52:38;;;;;;;20.85;11.20;;;-1.00;99.90;;;;;;5023679;28;20112;-75
2022/01/25 06:55:12;;;;;;;21.38;11.32;;;-1.00;99.90;;;;;;5028129;28;20025;-75
2022/01/25 06:57:38;;;;;;;23.08;11.82;;;-1.00;99.90;;;;;;5032454;28;20029;-75
2022/01/25 07:00:07;;;;;;;22.92;12.88;;;-1.00;99.90;;;;;;5033813;28;20501;-75
2022/01/25 07:02:32;;;;;;;27.98;14.20;;;-1.30;99.90;;;;;;5032692;28;20120;-75
2022/01/25 07:04:58;;;;;;;27.10;13.07;;;-1.40;99.90;;;;;;5023446;28;20477;-75
2022/01/25 07:07:24;;;;;;;27.48;12.95;;;-1.40;99.90;;;;;;5029162;28;20029;-75
2022/01/25 07:09:50;;;;;;;25.85;14.32;;;-1.30;99.90;;;;;;5030335;28;20029;-75
2022/01/25 07:12:15;;;;;;;30.08;15.98;;;-1.30;99.90;;;;;;5029706;28;20116;-75
2022/01/25 07:14:41;;;;;;;35.60;16.52;;;-1.20;99.90;;;;;;5029841;28;20079;-75
2022/01/25 07:17:07;;;;;;;32.25;15.95;;;-1.20;99.90;;;;;;5035799;28;20037;-74
2022/01/25 07:19:32;;;;;;;33.10;16.17;;;-1.20;99.90;;;;;;5032395;28;20025;-76
2022/01/25 07:21:58;;;;;;;36.40;17.33;;;-1.20;99.90;;;;;;5029846;28;20037;-76
2022/01/25 07:24:24;;;;;;;37.65;16.98;;;-1.10;99.90;;;;;;5029677;28;20032;-76
2022/01/25 07:26:50;;;;;;;35.60;17.70;;;-1.10;99.90;;;;;;5028941;28;20040;-76
2022/01/25 07:29:16;;;;;;;43.45;20.10;;;-1.20;99.90;;;;;;5029067;28;20029;-76
2022/01/25 07:31:42;;;;;;;41.95;19.65;;;-1.10;99.90;;;;;;5033122;28;20033;-76
2022/01/25 07:34:08;;;;;;;45.03;19.13;;;-1.10;99.90;;;;;;5032829;28;20521;-76
2022/01/25 07:36:36;;;;;;;47.20;20.02;;;-1.10;99.90;;;;;;5023866;28;20022;-77
2022/01/25 07:39:03;;;;;;;44.22;20.08;;;-1.00;99.90;;;;;;5027443;28;20105;-77
2022/01/25 07:41:29;;;;;;;41.08;19.10;;;-1.00;99.90;;;;;;5027173;28;20430;-77
2022/01/25 07:43:55;;;;;;;44.47;19.13;;;-1.00;99.90;;;;;;5027261;28;20026;-77
2022/01/25 07:46:21;;;;;;;41.67;18.92;;;-0.90;99.90;;;;;;5029485;28;20049;-77
2022/01/25 07:48:47;;;;;;;42.25;20.00;;;-0.90;99.90;;;;;;5030410;28;20112;-77
2022/01/25 07:51:12;;;;;;;43.65;19.73;;;-0.90;99.90;;;;;;5028470;28;20113;-77
2022/01/25 07:53:39;;;;;;;42.75;18.00;;;-0.80;99.90;;;;;;5028692;28;20501;-77
2022/01/25 07:56:05;;;;;;;40.10;19.08;;;-0.80;99.90;;;;;;5027102;28;20441;-77
2022/01/25 07:58:31;;;;;;;39.22;16.83;;;-0.80;99.90;;;;;;5025742;28;20025;-78
2022/01/25 08:00:58;;;;;;;43.85;18.02;;;-0.70;99.90;;;;;;5025791;28;20025;-77
2022/01/25 08:03:23;;;;;;;41.60;18.80;;;-0.70;99.90;;;;;;5028502;28;20025;-77
2022/01/25 08:05:50;;;;;;;41.55;18.48;;;-0.60;99.90;;;;;;5026549;28;20075;-77
2022/01/25 08:08:17;;;;;;;41.88;19.25;;;-0.50;99.90;;;;;;5027520;28;20030;-77
2022/01/25 08:10:43;;;;;;;44.47;20.15;;;-0.50;99.90;;;;;;5026659;28;20498;-77
2022/01/25 08:13:09;;;;;;;38.88;18.30;;;-0.40;99.90;;;;;;5028602;28;20033;-77
2022/01/25 08:15:35;;;;;;;36.22;18.65;;;-0.30;99.90;;;;;;5026339;28;20025;-77
2022/01/25 08:18:01;;;;;;;39.90;17.83;;;-0.10;99.90;;;;;;5027018;28;20079;-77
2022/01/25 08:20:26;;;;;;;38.30;18.75;;;-0.10;99.90;;;;;;5026719;28;20067;-77
2022/01/25 08:22:52;;;;;;;34.33;17.27;;;0.00;99.90;;;;;;5027020;28;20021;-77
2022/01/25 08:25:19;;;;;;;39.08;18.80;;;-0.10;99.90;;;;;;5032749;28;20737;-76
2022/01/25 08:27:46;;;;;;;37.80;18.25;;;-0.10;99.90;;;;;;5026207;28;20182;-77
2022/01/25 08:30:12;;;;;;;39.35;18.52;;;0.00;99.90;;;;;;5034314;28;20092;-77
2022/01/25 08:32:38;;;;;;;38.10;19.08;;;0.10;99.90;;;;;;5025813;28;20060;-77
2022/01/25 08:35:04;;;;;;;36.97;17.80;;;0.20;99.90;;;;;;5024873;28;20079;-77
2022/01/25 08:37:30;;;;;;;31.42;17.40;;;0.40;99.90;;;;;;5029167;28;20033;-77
2022/01/25 08:39:55;;;;;;;34.33;17.75;;;0.50;99.90;;;;;;5026031;28;20388;-77
2022/01/25 08:42:21;;;;;;;35.17;16.65;;;0.80;99.90;;;;;;5026201;28;20561;-76
2022/01/25 08:44:47;;;;;;;32.70;17.08;;;0.90;99.90;;;;;;5025799;28;20026;-76
2022/01/25 08:47:13;;;;;;;31.05;16.17;;;1.10;99.90;;;;;;5025100;28;20487;-77
2022/01/25 08:49:39;;;;;;;31.15;15.90;;;1.40;99.90;;;;;;5028399;28;20021;-77
2022/01/25 08:52:06;;;;;;;28.70;15.20;;;1.70;99.90;;;;;;5027752;28;20033;-77
2022/01/25 08:54:33;;;;;;;26.83;13.23;;;2.00;99.90;;;;;;5026645;28;20060;-77
2022/01/25 08:56:59;;;;;;;24.73;12.82;;;1.60;99.90;;;;;;5026807;28;20124;-77
2022/01/25 08:59:25;;;;;;;25.70;13.82;;;1.70;99.90;;;;;;5028615;28;20025;-77
2022/01/25 09:01:51;;;;;;;21.67;11.68;;;1.70;99.90;;;;;;5027451;28;20021;-79
2022/01/25 09:04:17;;;;;;;22.80;10.82;;;1.60;99.90;;;;;;5022084;28;20026;-79
2022/01/25 09:06:43;;;;;;;25.80;11.82;;;1.70;99.90;;;;;;5025610;28;20482;-79
2022/01/25 09:09:10;;;;;;;22.55;11.18;;;1.50;99.90;;;;;;5025629;28;20033;-79
2022/01/25 09:11:39;;;;;;;21.80;10.52;;;1.40;99.90;;;;;;5025955;28;20499;-79
2022/01/25 09:14:05;;;;;;;19.35;10.07;;;1.40;99.90;;;;;;5024874;28;20040;-80
2022/01/25 09:16:33;;;;;;;19.95;8.88;;;1.70;99.90;;;;;;5026850;28;20087;-80
2022/01/25 09:18:58;;;;;;;16.13;8.77;;;1.90;99.90;;;;;;5026600;28;20033;-81
2022/01/25 09:21:24;;;;;;;20.23;9.52;;;1.60;99.90;;;;;;5027463;28;20509;-82
2022/01/25 09:23:50;;;;;;;16.45;8.73;;;1.50;99.90;;;;;;5025689;28;20033;-82
2022/01/25 09:26:17;;;;;;;19.33;9.85;;;1.50;99.90;;;;;;5026342;28;20612;-85
2022/01/25 09:28:43;;;;;;;18.52;8.20;;;2.00;99.90;;;;;;5027242;28;20033;-84
2022/01/25 09:31:08;;;;;;;16.85;8.90;;;2.60;99.90;;;;;;5023943;28;20511;-86
2022/01/25 09:33:34;;;;;;;17.75;8.32;;;3.60;99.90;;;;;;5027357;28;20124;-83
2022/01/25 09:36:00;;;;;;;14.07;7.70;;;3.10;99.90;;;;;;5029011;28;20014;-86
2022/01/25 09:38:26;;;;;;;16.58;8.50;;;3.30;99.90;;;;;;5029699;28;20072;-84
2022/01/25 09:40:53;;;;;;;16.00;8.63;;;4.20;99.90;;;;;;5029778;28;20548;-83
2022/01/25 09:43:21;;;;;;;19.83;8.30;;;3.30;99.90;;;;;;5031188;28;20044;-83
2022/01/25 09:45:47;;;;;;;16.50;10.00;;;3.20;99.90;;;;;;5030996;28;20049;-83
2022/01/25 09:48:15;;;;;;;19.88;8.65;;;3.20;99.90;;;;;;5030882;28;20033;-82
2022/01/25 09:50:41;;;;;;;13.07;8.00;;;2.90;99.90;;;;;;5029938;28;20049;-82
2022/01/25 09:53:08;;;;;;;16.65;9.75;;;2.70;99.90;;;;;;5030027;28;20444;-83
2022/01/25 09:55:36;;;;;;;18.77;9.45;;;2.50;99.90;;;;;;5028754;28;20514;-83
2022/01/25 09:58:03;;;;;;;20.38;10.55;;;2.80;99.90;;;;;;5030904;28;20049;-84
2022/01/25 10:00:30;;;;;;;19.27;10.30;;;2.50;99.90;;;;;;5025000;28;20030;-84
2022/01/25 10:03:07;;;;;;;21.23;10.13;;;2.60;99.90;;;;;;5025101;28;20030;-84
2022/01/25 10:05:37;;;;;;;20.25;10.25;;;2.80;99.90;;;;;;5027525;28;20517;-85
2022/01/25 10:08:09;;;;;;;17.50;9.07;;;2.70;99.90;;;;;;5027471;28;20025;-85
2022/01/25 10:10:43;;;;;;;17.80;10.18;;;2.90;99.90;;;;;;5028152;28;20034;-84
2022/01/25 10:13:17;;;;;;;19.27;9.82;;;3.00;99.90;;;;;;5032438;28;20112;-85
2022/01/25 10:15:44;;;;;;;17.65;9.00;;;3.00;99.90;;;;;;5030945;28;20028;-85
2022/01/25 10:18:11;;;;;;;17.27;8.77;;;3.00;99.90;;;;;;5029349;28;20028;-84
2022/01/25 10:20:40;;;;;;;15.45;8.73;;;3.20;99.90;;;;;;5028306;28;20026;-85
2022/01/25 10:23:31;;;;;;;16.30;8.20;;;3.20;99.90;;;;;;5029143;28;20056;-84
2022/01/25 10:26:01;;;;;;;16.48;8.23;;;3.30;99.90;;;;;;5027000;28;20037;-86
2022/01/25 10:28:31;;;;;;;17.38;9.60;;;3.20;99.90;;;;;;5031098;28;20036;-86
2022/01/25 10:31:05;;;;;;;17.02;9.23;;;3.30;99.90;;;;;;5032178;28;20029;-86
2022/01/25 10:33:43;;;;;;;15.60;8.90;;;3.50;99.90;;;;;;5029270;28;20038;-86
2022/01/25 10:36:19;;;;;;;16.40;9.55;;;3.50;99.90;;;;;;5027928;28;20125;-86
2022/01/25 10:38:47;;;;;;;16.73;9.50;;;3.60;99.90;;;;;;5027882;28;20021;-86
2022/01/25 10:41:19;;;;;;;15.85;9.63;;;3.60;99.90;;;;;;5028841;28;20021;-84
2022/01/25 10:43:47;;;;;;;15.90;9.60;;;3.60;99.90;;;;;;5029756;28;20108;-85
2022/01/25 10:46:17;;;;;;;15.98;9.60;;;3.80;99.90;;;;;;5032202;28;20107;-85
2022/01/25 10:48:47;;;;;;;16.75;10.05;;;3.90;99.90;;;;;;5030300;28;20029;-85
2022/01/25 10:51:17;;;;;;;19.15;10.68;;;4.00;99.90;;;;;;5026928;28;20229;-85
2022/01/25 10:53:43;;;;;;;16.65;9.98;;;4.10;99.90;;;;;;5033805;28;20021;-84
2022/01/25 10:56:12;;;;;;;19.80;10.13;;;4.20;99.90;;;;;;5030713;28;20125;-85
2022/01/25 10:58:41;;;;;;;16.33;9.73;;;4.30;99.90;;;;;;5028042;28;20063;-86
2022/01/25 11:01:09;;;;;;;16.35;10.05;;;4.20;99.90;;;;;;5044331;28;20033;-86
2022/01/25 11:03:43;;;;;;;18.50;9.38;;;4.50;99.90;;;;;;5027599;28;20025;-86
2022/01/25 11:06:10;;;;;;;13.40;8.73;;;4.50;99.90;;;;;;5023995;28;20043;-86
2022/01/25 11:08:38;;;;;;;16.83;10.02;;;4.60;99.90;;;;;;5028856;28;20029;-86
2022/01/25 11:11:08;;;;;;;17.13;10.40;;;4.90;99.90;;;;;;5027842;28;20025;-86
2022/01/25 11:13:36;;;;;;;16.33;9.85;;;5.20;99.90;;;;;;5028129;28;20040;-86
2022/01/25 11:16:07;;;;;;;17.58;10.10;;;5.20;99.90;;;;;;5040454;28;20025;-86
2022/01/25 11:18:34;;;;;;;17.95;10.57;;;5.20;99.90;;;;;;5027232;28;20075;-84
2022/01/25 11:21:02;;;;;;;21.42;11.13;;;5.60;99.90;;;;;;5028365;28;20551;-86
2022/01/25 11:23:32;;;;;;;20.98;11.10;;;5.60;99.90;;;;;;5025633;28;20116;-85
2022/01/25 11:25:59;;;;;;;22.33;11.43;;;5.80;99.90;;;;;;5026804;28;20029;-79
2022/01/25 11:28:25;;;;;;;19.40;11.50;;;5.90;99.90;;;;;;5028253;28;20033;-79
2022/01/25 11:30:52;;;;;;;19.10;11.38;;;5.90;99.90;;;;;;5027832;28;20037;-79
2022/01/25 11:33:20;;;;;;;18.10;10.45;;;6.00;99.90;;;;;;5025669;28;20128;-79
2022/01/25 11:35:49;;;;;;;20.23;11.70;;;6.20;99.90;;;;;;5024682;28;20025;-79
2022/01/25 11:38:15;;;;;;;17.42;10.70;;;6.40;99.90;;;;;;5026358;28;20076;-79
2022/01/25 11:40:46;;;;;;;19.80;11.07;;;6.30;99.90;;;;;;5027588;28;20537;-79
2022/01/25 11:43:14;;;;;;;18.00;10.57;;;6.30;99.90;;;;;;5026462;28;20049;-79
2022/01/25 11:45:48;;;;;;;15.70;9.73;;;6.00;99.90;;;;;;5027344;28;20081;-79
2022/01/25 11:48:18;;;;;;;19.42;10.95;;;6.10;99.90;;;;;;5026510;28;20120;-79
2022/01/25 11:50:44;;;;;;;18.70;11.45;;;6.50;99.90;;;;;;5032661;28;20503;-79
2022/01/25 11:53:12;;;;;;;17.98;11.15;;;6.40;99.90;;;;;;5022443;28;20062;-79
2022/01/25 11:55:41;;;;;;;19.67;11.00;;;6.30;99.90;;;;;;5014962;28;20045;-79
2022/01/25 11:58:13;;;;;;;16.88;10.52;;;6.80;99.90;;;;;;5027162;28;20025;-79
2022/01/25 12:00:43;;;;;;;16.83;10.68;;;6.80;99.90;;;;;;5027996;28;20037;-79
2022/01/25 12:03:29;;;;;;;14.68;10.07;;;6.60;99.90;;;;;;5026167;28;20399;-78
2022/01/25 12:06:08;;;;;;;17.60;10.57;;;6.80;99.90;;;;;;5021885;28;20029;-79
2022/01/25 12:09:06;;;;;;;17.77;10.48;;;6.90;99.90;;;;;;5027923;28;20028;-79
2022/01/25 12:12:01;;;;;;;18.45;9.75;;;7.10;99.90;;;;;;5025707;28;20026;-79
2022/01/25 12:14:49;;;;;;;18.38;10.63;;;7.00;99.90;;;;;;5027980;28;20072;-78
2022/01/25 12:17:24;;;;;;;15.85;10.75;;;7.10;99.90;;;;;;5027181;28;20172;-77
2022/01/25 12:19:51;;;;;;;16.88;11.00;;;7.30;99.90;;;;;;5027163;28;20112;-77
2022/01/25 12:27:39;;;;;;;18.23;12.05;;;7.30;99.90;;;;;;5026502;28;20084;-77
2022/01/25 12:30:12;;;;;;;19.98;12.18;;;7.30;99.90;;;;;;5027740;28;20108;-77
2022/01/25 12:32:54;;;;;;;23.38;13.48;;;7.70;99.90;;;;;;5026226;28;20026;-77
2022/01/25 12:35:44;;;;;;;22.20;12.68;;;7.50;99.90;;;;;;5025579;28;20030;-77
2022/01/25 12:38:11;;;;;;;17.30;10.77;;;7.40;99.90;;;;;;5025060;28;20022;-77
2022/01/25 12:40:41;;;;;;;18.73;10.90;;;7.40;99.90;;;;;;5027160;28;20028;-77
2022/01/25 12:43:19;;;;;;;17.67;11.63;;;7.70;99.90;;;;;;5024239;28;20033;-76
2022/01/25 12:45:50;;;;;;;16.20;10.13;;;7.80;99.90;;;;;;5026588;28;20057;-76
2022/01/25 12:48:20;;;;;;;19.52;12.20;;;7.80;99.90;;;;;;5026631;28;20030;-76
2022/01/25 12:50:50;;;;;;;18.67;10.65;;;8.10;99.90;;;;;;5029075;28;20399;-76
2022/01/25 12:53:23;;;;;;;19.13;12.02;;;7.80;99.90;;;;;;5028710;28;20017;-76
2022/01/25 12:55:51;;;;;;;18.80;10.90;;;8.00;99.90;;;;;;5013972;28;20099;-76
2022/01/25 12:58:22;;;;;;;18.27;11.23;;;8.10;99.90;;;;;;5026270;28;20109;-77
2022/01/25 13:00:50;;;;;;;16.67;11.00;;;8.40;99.90;;;;;;5025855;28;20026;-76
2022/01/25 13:03:17;;;;;;;17.55;10.95;;;8.30;99.90;;;;;;5029785;28;20291;-76
2022/01/25 13:05:47;;;;;;;16.80;10.85;;;8.60;99.90;;;;;;5025389;28;20040;-76
2022/01/25 13:08:18;;;;;;;19.13;10.45;;;8.40;99.90;;;;;;5021713;28;20083;-76
2022/01/25 13:10:44;;;;;;;;;;;8.50;99.90;;;;;;5028275;28;20188;-76
2022/01/25 13:13:31;;;;;;;16.38;8.60;;;8.60;99.90;;;;;;5030861;28;20015;-76
2022/01/25 13:15:58;;;;;;;13.32;8.52;;;8.70;99.90;;;;;;5032956;28;20087;-76
2022/01/25 13:18:29;;;;;;;14.10;9.82;;;8.60;99.90;;;;;;5029822;28;20034;-76
2022/01/25 13:21:09;;;;;;;11.60;7.90;;;8.70;99.90;;;;;;5027118;28;20022;-76
2022/01/25 13:23:49;;;;;;;12.25;7.82;;;8.50;99.90;;;;;;5027521;28;20025;-76
2022/01/25 13:26:15;;;;;;;14.88;8.05;;;8.40;99.90;;;;;;5030648;28;20060;-76
2022/01/25 13:31:17;;;;;;;14.88;8.07;;;8.40;99.90;;;;;;5025093;28;20036;-76
2022/01/25 13:33:43;;;;;;;12.02;7.85;;;8.60;99.90;;;;;;5029618;28;20356;-76
2022/01/25 13:36:16;;;;;;;10.45;6.63;;;8.70;99.90;;;;;;5028299;28;20571;-77
2022/01/25 13:38:43;;;;;;;11.18;7.00;;;8.40;99.90;;;;;;5029994;28;20029;-76
2022/01/25 13:46:29;;;;;;;13.23;7.97;;;8.40;99.90;;;;;;5026647;28;20152;-76
2022/01/25 13:49:07;;;;;;;11.23;7.47;;;8.40;99.90;;;;;;5033668;28;20167;-77
2022/01/25 13:51:40;;;;;;;14.20;7.15;;;8.90;99.90;;;;;;5029926;28;20041;-77
2022/01/25 13:54:06;;;;;;;10.98;6.88;;;8.60;99.90;;;;;;5029175;28;20273;-77
2022/01/25 13:56:35;;;;;;;10.13;6.25;;;8.50;99.90;;;;;;5029559;28;20136;-77
2022/01/25 13:59:03;;;;;;;9.10;6.45;;;8.50;99.90;;;;;;5029904;28;20561;-77
2022/01/25 14:01:31;;;;;;;10.73;6.75;;;8.30;99.90;;;;;;5030026;28;20064;-76
2022/01/25 14:04:04;;;;;;;9.60;6.25;;;8.20;99.90;;;;;;5025726;28;20067;-76
2022/01/25 14:06:42;;;;;;;10.00;6.60;;;8.30;99.90;;;;;;5028398;28;20511;-76
2022/01/25 14:09:09;;;;;;;10.70;7.07;;;8.40;99.90;;;;;;5028472;28;20037;-79
2022/01/25 14:25:36;;;;;;;11.88;8.23;;;8.40;99.90;;;;;;5031937;28;20029;-78
2022/01/25 14:28:06;;;;;;;13.80;8.65;;;8.30;99.90;;;;;;5033584;28;20263;-77
2022/01/25 14:30:35;;;;;;;10.98;7.57;;;8.30;99.90;;;;;;5025404;28;20029;-79
2022/01/25 14:33:11;;;;;;;11.15;7.30;;;8.80;99.90;;;;;;5029201;28;20486;-77
2022/01/25 14:36:00;;;;;;;12.18;7.70;;;8.90;99.90;;;;;;5027268;28;20031;-79
2022/01/25 14:38:30;;;;;;;12.98;8.13;;;8.60;99.90;;;;;;5027767;28;20065;-77
2022/01/25 14:41:04;;;;;;;10.57;7.00;;;8.60;99.90;;;;;;5029678;28;20035;-77
2022/01/25 14:43:37;;;;;;;10.35;6.70;;;8.40;99.90;;;;;;5025992;28;20037;-77
2022/01/25 14:46:17;;;;;;;11.68;7.20;;;8.40;99.90;;;;;;5029887;28;20044;-77
2022/01/25 14:48:44;;;;;;;10.48;6.38;;;8.20;99.90;;;;;;5028814;28;20030;-77
2022/01/25 14:51:12;;;;;;;10.32;6.93;;;8.30;99.90;;;;;;5028719;28;20108;-77
2022/01/25 14:53:43;;;;;;;12.55;7.20;;;8.30;99.90;;;;;;5026966;28;20164;-77
2022/01/25 14:56:12;;;;;;;16.58;7.20;;;8.40;99.90;;;;;;5028000;28;20029;-77
2022/01/25 15:01:19;;;;;;;9.38;5.63;;;8.30;99.90;;;;;;5028960;28;20112;-77
2022/01/25 15:03:45;;;;;;;8.95;5.53;;;8.30;99.90;;;;;;5029949;28;20037;-77